KALN/ALN METAR and TAF weather

Enter ICAO airport designator
Station Type Date Time Source
KALN METAR 2020/11/27 13:28 UTC NOAA

KALN 271328Z 09004KT 2SM BR BKN070 02/02 A3011


Station Type Date Time Source
KALN Decoded METAR 2020/11/27 13:28 UTC NOAA

Alton/St. Louis, St. Louis Regional Airport, IL, United States (KALN) 38-54N 090-03W
Nov 27, 2020 - 08:28 AM EST / 2020.11.27 1328 UTC
Wind: from the E (090 degrees) at 5 MPH (4 KT):0
Visibility: 2 mile(s):0
Sky conditions: mostly cloudy
Weather: mist
Temperature: 35 F (2 C)
Windchill: 30 F (-1 C):1
Dew Point: 35 F (2 C)
Relative Humidity: 100%
Pressure (altimeter): 30.11 in. Hg (1019 hPa)
ob: KALN 271328Z 09004KT 2SM BR BKN070 02/02 A3011
cycle: 13

Station Type Date Time Source
KALN TAF UTC NOAA

Error!

Example: see airport list